createdAt,value
2018-09-11T00:02:17.913Z,6.40
2018-09-11T00:04:45.193Z,4.80
2018-09-11T00:07:12.232Z,4.83
2018-09-11T00:09:39.431Z,5.20
2018-09-11T00:12:06.772Z,4.50
2018-09-11T00:14:33.865Z,4.80
2018-09-11T00:17:00.840Z,4.40
2018-09-11T00:19:28.202Z,4.70
2018-09-11T00:21:55.373Z,4.50
2018-09-11T00:24:22.499Z,4.50
2018-09-11T00:26:49.749Z,4.40
2018-09-11T00:29:16.759Z,4.33
2018-09-11T00:31:43.811Z,5.10
2018-09-11T00:34:11.127Z,4.10
2018-09-11T00:36:38.154Z,4.33
2018-09-11T00:39:05.309Z,3.60
2018-09-11T00:41:32.842Z,4.90
2018-09-11T00:44:00.017Z,3.43
2018-09-11T00:46:27.185Z,4.30
2018-09-11T00:48:54.388Z,4.23
2018-09-11T00:51:21.406Z,4.10
2018-09-11T00:53:48.388Z,3.90
2018-09-11T00:56:15.658Z,4.47
2018-09-11T00:58:42.958Z,3.80
2018-09-11T01:01:10.098Z,3.80
2018-09-11T01:03:37.490Z,3.50
2018-09-11T01:06:04.498Z,3.90
2018-09-11T01:08:31.487Z,4.47
2018-09-11T01:10:58.789Z,4.10
2018-09-11T01:13:25.861Z,4.13
2018-09-11T01:15:52.952Z,3.90
2018-09-11T01:18:20.306Z,3.67
2018-09-11T01:20:47.283Z,3.87
2018-09-11T01:23:14.359Z,3.53
2018-09-11T01:25:41.684Z,3.57
2018-09-11T01:28:08.648Z,3.80
2018-09-11T01:30:35.646Z,3.60
2018-09-11T01:33:02.877Z,4.00
2018-09-11T01:35:29.854Z,3.93
2018-09-11T01:37:56.787Z,4.07
2018-09-11T01:40:23.789Z,3.57
2018-09-11T01:42:50.764Z,4.13
2018-09-11T01:45:17.733Z,3.30
2018-09-11T01:47:45.023Z,3.13
2018-09-11T01:50:11.996Z,3.83
2018-09-11T01:52:39.030Z,3.83
2018-09-11T01:55:06.361Z,3.43
2018-09-11T01:57:33.400Z,3.60
2018-09-11T02:00:00.424Z,3.43
2018-09-11T02:02:34.674Z,3.80
2018-09-11T02:05:01.703Z,4.03
2018-09-11T02:07:28.656Z,3.47
2018-09-11T02:09:55.633Z,3.80
2018-09-11T02:12:22.683Z,3.53
2018-09-11T02:14:50.446Z,3.60
2018-09-11T02:17:17.502Z,3.93
2018-09-11T02:19:44.489Z,4.20
2018-09-11T02:22:11.453Z,4.00
2018-09-11T02:24:38.745Z,4.20
2018-09-11T02:27:05.756Z,3.57
2018-09-11T02:29:32.825Z,3.97
2018-09-11T02:32:00.266Z,3.50
2018-09-11T02:34:27.249Z,3.57
2018-09-11T02:36:54.300Z,4.23
2018-09-11T02:39:21.688Z,3.23
2018-09-11T02:41:48.804Z,3.77
2018-09-11T02:44:15.741Z,4.07
2018-09-11T02:46:42.925Z,4.07
2018-09-11T02:49:09.931Z,3.50
2018-09-11T02:51:36.913Z,3.90
2018-09-11T02:54:03.961Z,3.50
2018-09-11T02:56:31.284Z,3.30
2018-09-11T02:58:58.212Z,3.97
2018-09-11T03:01:25.522Z,3.47
2018-09-11T03:03:52.481Z,3.63
2018-09-11T03:06:19.849Z,4.07
2018-09-11T03:08:47.548Z,3.57
2018-09-11T03:11:14.540Z,3.63
2018-09-11T03:13:41.618Z,3.33
2018-09-11T03:16:08.594Z,3.60
2018-09-11T03:18:35.569Z,3.80
2018-09-11T03:21:02.572Z,3.57
2018-09-11T03:23:29.832Z,3.67
2018-09-11T03:25:56.856Z,4.13
2018-09-11T03:28:23.786Z,3.70
2018-09-11T03:30:51.158Z,3.90
2018-09-11T03:33:18.135Z,3.80
2018-09-11T03:35:45.082Z,3.67
2018-09-11T03:38:12.375Z,3.87
2018-09-11T03:40:39.347Z,3.80
2018-09-11T03:43:06.305Z,4.40
2018-09-11T03:45:33.270Z,3.77
2018-09-11T03:48:00.234Z,4.60
2018-09-11T03:50:27.458Z,4.10
2018-09-11T03:52:54.750Z,3.97
2018-09-11T03:55:21.794Z,3.80
2018-09-11T03:57:48.821Z,4.00
2018-09-11T04:00:15.874Z,4.80
2018-09-11T04:02:42.849Z,4.67
2018-09-11T04:05:09.852Z,4.23
2018-09-11T04:07:37.117Z,4.27
2018-09-11T04:10:04.191Z,4.60
2018-09-11T04:12:31.140Z,4.40
2018-09-11T04:14:58.179Z,4.67
2018-09-11T04:17:30.803Z,3.73
2018-09-11T04:19:58.083Z,4.00
2018-09-11T04:22:25.077Z,6.37
2018-09-11T04:24:52.052Z,4.77
2018-09-11T04:27:19.458Z,4.50
2018-09-11T04:29:46.402Z,4.93
2018-09-11T04:32:13.322Z,4.40
2018-09-11T04:34:40.572Z,4.77
2018-09-11T04:37:07.557Z,5.07
2018-09-11T04:39:34.543Z,4.50
2018-09-11T04:42:01.555Z,4.70
2018-09-11T04:44:28.528Z,6.70
2018-09-11T04:46:55.483Z,5.17
2018-09-11T04:49:22.758Z,5.40
2018-09-11T04:51:50.105Z,5.90
2018-09-11T04:54:17.098Z,5.80
2018-09-11T04:56:44.348Z,5.80
2018-09-11T04:59:11.369Z,5.20
2018-09-11T05:01:38.368Z,5.33
2018-09-11T05:04:05.323Z,5.50
2018-09-11T05:06:32.261Z,5.80
2018-09-11T05:08:59.223Z,6.00
2018-09-11T05:11:26.505Z,6.40
2018-09-11T05:13:53.492Z,6.77
2018-09-11T05:16:20.481Z,5.57
2018-09-11T05:18:47.766Z,6.20
2018-09-11T05:21:14.738Z,6.33
2018-09-11T05:23:41.734Z,6.33
2018-09-11T05:26:08.971Z,5.87
2018-09-11T05:28:36.072Z,6.30
2018-09-11T05:31:03.075Z,6.07
2018-09-11T05:33:30.328Z,6.63
2018-09-11T05:35:57.298Z,5.30
2018-09-11T05:38:24.248Z,5.77
2018-09-11T05:40:51.501Z,5.60
2018-09-11T05:43:18.515Z,5.50
2018-09-11T05:45:45.487Z,5.50
2018-09-11T05:48:12.763Z,5.57
2018-09-11T05:50:39.729Z,5.47
2018-09-11T05:53:06.753Z,5.90
2018-09-11T05:55:33.771Z,5.60
2018-09-11T05:58:00.707Z,6.00
2018-09-11T06:00:27.705Z,6.00
2018-09-11T06:02:54.951Z,5.87
2018-09-11T06:05:21.936Z,6.83
2018-09-11T06:07:48.979Z,6.80
2018-09-11T06:10:16.198Z,8.73
2018-09-11T06:12:43.223Z,6.20
2018-09-11T06:15:10.220Z,5.63
2018-09-11T06:17:37.326Z,7.13
2018-09-11T06:20:05.207Z,5.63
2018-09-11T06:22:32.178Z,5.73
2018-09-11T06:24:59.499Z,5.30
2018-09-11T06:27:26.456Z,5.13
2018-09-11T06:29:53.478Z,5.80
2018-09-11T06:32:20.766Z,5.90
2018-09-11T06:34:47.745Z,5.70
2018-09-11T06:37:14.829Z,5.60
2018-09-11T06:39:42.107Z,9.67
2018-09-11T06:42:09.098Z,6.50
2018-09-11T06:44:36.123Z,11.27
2018-09-11T06:47:03.109Z,7.20
2018-09-11T06:49:30.096Z,9.63
2018-09-11T06:51:57.033Z,7.07
2018-09-11T06:54:24.268Z,5.53
2018-09-11T06:56:51.250Z,7.30
2018-09-11T06:59:18.233Z,6.60
2018-09-11T07:01:45.643Z,6.00
2018-09-11T07:04:12.754Z,5.60
2018-09-11T07:06:39.688Z,7.50
2018-09-11T07:09:08.535Z,4.67
2018-09-11T07:11:35.517Z,5.20
2018-09-11T07:14:02.589Z,4.73
2018-09-11T07:16:29.677Z,4.80
2018-09-11T07:18:56.727Z,4.80
2018-09-11T07:21:23.821Z,4.10
2018-09-11T07:23:51.245Z,4.67
2018-09-11T07:26:18.364Z,7.77
2018-09-11T07:28:45.578Z,5.03
2018-09-11T07:31:12.667Z,4.70
2018-09-11T07:33:39.770Z,5.10
2018-09-11T07:36:06.866Z,4.70
2018-09-11T07:38:34.297Z,4.40
2018-09-11T07:41:01.329Z,5.50
2018-09-11T07:43:28.380Z,4.90
2018-09-11T07:45:55.742Z,5.70
2018-09-11T07:48:22.801Z,4.77
2018-09-11T07:50:49.897Z,4.70
2018-09-11T07:53:17.351Z,5.27
2018-09-11T07:55:44.405Z,5.80
2018-09-11T07:58:11.567Z,5.63
2018-09-11T08:00:38.678Z,5.77
2018-09-11T08:03:05.778Z,4.77
2018-09-11T08:05:32.876Z,5.93
2018-09-11T08:08:00.177Z,5.87
2018-09-11T08:10:27.304Z,5.33
2018-09-11T08:12:55.013Z,6.37
2018-09-11T08:15:22.541Z,5.00
2018-09-11T08:17:49.583Z,5.20
2018-09-11T08:20:16.754Z,9.07
2018-09-11T08:22:43.909Z,6.10
2018-09-11T08:25:10.945Z,4.20
2018-09-11T08:27:37.993Z,4.33
2018-09-11T08:30:05.562Z,5.80
2018-09-11T08:32:32.671Z,4.90
2018-09-11T08:34:59.786Z,5.30
2018-09-11T08:37:27.162Z,5.40
2018-09-11T08:39:54.216Z,3.90
2018-09-11T08:42:21.322Z,4.43
2018-09-11T08:44:48.522Z,4.53
2018-09-11T08:47:15.630Z,4.30
2018-09-11T08:49:42.738Z,5.33
2018-09-11T08:52:10.145Z,4.80
2018-09-11T08:54:37.194Z,4.20
2018-09-11T08:57:04.358Z,4.00
2018-09-11T08:59:31.659Z,4.87
2018-09-11T09:01:58.696Z,4.30
2018-09-11T09:04:25.777Z,4.70
2018-09-11T09:06:52.953Z,4.77
2018-09-11T09:09:19.968Z,5.90
2018-09-11T09:11:47.054Z,5.17
2018-09-11T09:14:14.490Z,4.60
2018-09-11T09:16:41.610Z,5.70
2018-09-11T09:19:08.677Z,4.03
2018-09-11T09:21:36.150Z,4.83
2018-09-11T09:24:03.229Z,4.97
2018-09-11T09:26:30.398Z,4.67
2018-09-11T09:28:58.783Z,5.73
2018-09-11T09:31:25.852Z,4.70
2018-09-11T09:33:52.955Z,4.27
2018-09-11T09:36:20.116Z,5.00
2018-09-11T09:38:47.212Z,4.53
2018-09-11T09:41:14.309Z,5.03
2018-09-11T09:43:41.440Z,4.63
2018-09-11T09:46:08.618Z,4.23
2018-09-11T09:48:35.701Z,3.60
2018-09-11T09:51:02.860Z,4.03
2018-09-11T09:53:29.996Z,4.20
2018-09-11T09:55:57.145Z,4.43
2018-09-11T09:58:24.562Z,4.80
2018-09-11T10:01:01.197Z,4.03
2018-09-11T10:03:28.664Z,4.70
2018-09-11T10:05:55.745Z,4.63
2018-09-11T10:08:22.794Z,4.40
2018-09-11T10:10:50.235Z,4.70
2018-09-11T10:13:17.301Z,4.43
2018-09-11T10:15:44.418Z,4.43
2018-09-11T10:18:11.874Z,4.60
2018-09-11T10:20:38.977Z,4.87
2018-09-11T10:23:06.175Z,4.30
2018-09-11T10:25:33.543Z,4.30
2018-09-11T10:28:00.676Z,4.00
2018-09-11T10:30:27.782Z,4.27
2018-09-11T10:32:55.176Z,4.67
2018-09-11T10:35:22.304Z,5.00
2018-09-11T10:37:49.385Z,3.83
2018-09-11T10:40:16.778Z,4.30
2018-09-11T10:42:43.851Z,4.50
2018-09-11T10:45:10.934Z,4.10
2018-09-11T10:47:38.482Z,3.60
2018-09-11T10:50:05.552Z,3.30
2018-09-11T10:52:32.642Z,4.17
2018-09-11T10:55:00.141Z,4.10
2018-09-11T10:57:27.306Z,3.90
2018-09-11T10:59:54.446Z,3.47
2018-09-11T11:02:21.859Z,4.60
2018-09-11T11:04:48.953Z,4.30
2018-09-11T11:07:16.038Z,3.60
2018-09-11T11:09:43.548Z,3.60
2018-09-11T11:12:10.657Z,3.47
2018-09-11T11:14:37.847Z,4.33
2018-09-11T11:17:05.096Z,3.40
2018-09-11T11:19:32.125Z,3.30
2018-09-11T11:21:59.243Z,3.90
2018-09-11T11:24:26.600Z,3.43
2018-09-11T11:26:53.780Z,3.67
2018-09-11T11:29:20.873Z,5.03
2018-09-11T11:31:48.350Z,4.77
2018-09-11T11:34:15.414Z,4.53
2018-09-11T11:36:42.720Z,3.80
2018-09-11T11:39:11.038Z,5.10
2018-09-11T11:41:38.293Z,5.30
2018-09-11T11:44:05.381Z,3.87
2018-09-11T11:46:32.741Z,4.20
2018-09-11T11:48:59.831Z,3.50
2018-09-11T11:51:26.881Z,4.00
2018-09-11T11:53:54.505Z,4.33
2018-09-11T11:56:21.581Z,4.00
2018-09-11T11:58:48.750Z,4.00
2018-09-11T12:01:16.120Z,4.80
2018-09-11T12:03:43.148Z,4.03
2018-09-11T12:06:10.205Z,3.17
2018-09-11T12:08:37.877Z,4.80
2018-09-11T12:11:05.025Z,3.50
2018-09-11T12:13:32.215Z,4.40
2018-09-11T12:15:59.669Z,3.53
2018-09-11T12:18:26.823Z,4.33
2018-09-11T12:20:53.968Z,3.63
2018-09-11T12:23:21.317Z,3.90
2018-09-11T12:25:48.503Z,3.40
2018-09-11T12:28:15.537Z,3.90
2018-09-11T12:30:43.124Z,3.50
2018-09-11T12:33:10.354Z,3.77
2018-09-11T12:35:37.536Z,7.17
2018-09-11T12:38:05.154Z,4.73
2018-09-11T12:40:32.192Z,4.17
2018-09-11T12:42:59.252Z,4.90
2018-09-11T12:45:26.703Z,3.60
2018-09-11T12:47:54.148Z,3.80
2018-09-11T12:50:20.906Z,4.23
2018-09-11T12:52:48.386Z,3.60
2018-09-11T12:55:15.424Z,3.37
2018-09-11T12:57:42.486Z,3.60
2018-09-11T13:00:10.076Z,3.13
2018-09-11T13:02:37.448Z,3.17
2018-09-11T13:05:04.612Z,3.00
2018-09-11T13:07:33.368Z,3.57
2018-09-11T13:10:00.519Z,3.60
2018-09-11T13:12:27.590Z,3.67
2018-09-11T13:14:55.092Z,3.53
2018-09-11T13:17:22.194Z,3.20
2018-09-11T13:19:49.265Z,2.57
2018-09-11T13:22:16.717Z,3.17
2018-09-11T13:24:44.009Z,3.87
2018-09-11T13:27:11.208Z,3.17
2018-09-11T13:29:38.611Z,2.80
2018-09-11T13:32:05.677Z,3.00
2018-09-11T13:34:32.770Z,3.00
2018-09-11T13:37:00.129Z,2.87
2018-09-11T13:39:27.197Z,3.60
2018-09-11T13:41:54.231Z,3.30
2018-09-11T13:44:21.558Z,3.47
2018-09-11T13:46:48.762Z,3.43
2018-09-11T13:49:15.882Z,3.50
2018-09-11T13:51:43.398Z,3.10
2018-09-11T13:54:10.535Z,2.73
2018-09-11T13:56:37.636Z,2.60
2018-09-11T13:59:05.330Z,3.00
2018-09-11T14:01:32.515Z,3.20
2018-09-11T14:03:59.667Z,4.17
2018-09-11T14:06:27.326Z,4.00
2018-09-11T14:08:54.478Z,3.80
2018-09-11T14:11:21.560Z,10.30
2018-09-11T14:13:48.944Z,3.10
2018-09-11T14:16:16.241Z,2.60
2018-09-11T14:18:43.333Z,4.63
2018-09-11T14:21:10.792Z,3.10
2018-09-11T14:23:37.862Z,3.37
2018-09-11T14:26:05.021Z,2.70
2018-09-11T14:28:32.464Z,3.13
2018-09-11T14:30:59.537Z,2.43
2018-09-11T14:33:26.622Z,2.50
2018-09-11T14:35:53.977Z,2.67
2018-09-11T14:38:21.054Z,2.40
2018-09-11T14:40:48.125Z,2.93
2018-09-11T14:43:15.533Z,2.50
2018-09-11T14:45:42.564Z,2.30
2018-09-11T14:48:09.634Z,2.20
2018-09-11T14:50:36.979Z,2.40
2018-09-11T14:53:04.021Z,2.60
2018-09-11T14:55:31.122Z,3.93
2018-09-11T14:57:59.834Z,3.07
2018-09-11T15:00:26.955Z,2.73
2018-09-11T15:02:53.996Z,3.83
2018-09-11T15:05:21.320Z,2.77
2018-09-11T15:07:48.473Z,2.70
2018-09-11T15:10:15.499Z,3.10
2018-09-11T15:12:42.861Z,2.47
2018-09-11T15:15:09.954Z,3.30
2018-09-11T15:17:37.022Z,2.93
2018-09-11T15:20:05.448Z,4.37
2018-09-11T15:22:32.672Z,3.10
2018-09-11T15:24:59.811Z,3.10
2018-09-11T15:27:27.303Z,3.70
2018-09-11T15:29:54.532Z,2.53
2018-09-11T15:32:21.670Z,2.63
2018-09-11T15:34:49.173Z,2.87
2018-09-11T15:37:16.297Z,3.80
2018-09-11T15:39:43.374Z,4.80
2018-09-11T15:42:10.843Z,3.10
2018-09-11T15:44:37.895Z,3.10
2018-09-11T15:47:04.934Z,3.30
2018-09-11T15:49:32.342Z,3.77
2018-09-11T15:51:59.365Z,3.07
2018-09-11T15:54:26.546Z,2.93
2018-09-11T15:56:54.029Z,3.43
2018-09-11T15:59:21.166Z,3.77
2018-09-11T16:01:48.235Z,3.00
2018-09-11T16:04:15.716Z,2.60
2018-09-11T16:06:42.889Z,2.90
2018-09-11T16:09:11.524Z,3.00
2018-09-11T16:11:38.964Z,2.63
2018-09-11T16:14:06.374Z,2.97
2018-09-11T16:16:33.932Z,2.70
2018-09-11T16:19:01.352Z,3.30
2018-09-11T16:21:28.467Z,4.70
2018-09-11T16:23:55.551Z,2.83
2018-09-11T16:26:23.023Z,4.70
2018-09-11T16:28:50.193Z,3.17
2018-09-11T16:31:17.292Z,3.67
2018-09-11T16:33:44.623Z,7.10
2018-09-11T16:36:11.677Z,17.97
2018-09-11T16:38:38.760Z,6.37
2018-09-11T16:41:06.151Z,3.57
2018-09-11T16:43:33.309Z,10.93
2018-09-11T16:46:00.461Z,9.73
2018-09-11T16:48:27.796Z,6.50
2018-09-11T16:50:54.857Z,9.40
2018-09-11T16:53:22.070Z,5.00
2018-09-11T16:55:49.508Z,6.60
2018-09-11T16:58:16.591Z,3.90
2018-09-11T17:00:43.700Z,3.47
2018-09-11T17:03:11.023Z,4.37
2018-09-11T17:05:38.254Z,2.73
2018-09-11T17:08:05.398Z,3.67
2018-09-11T17:10:32.816Z,7.30
2018-09-11T17:12:59.925Z,13.73
2018-09-11T17:15:27.051Z,4.27
2018-09-11T17:17:54.440Z,5.53
2018-09-11T17:20:21.573Z,6.87
2018-09-11T17:22:49.507Z,8.57
2018-09-11T17:25:17.045Z,5.90
2018-09-11T17:27:44.191Z,5.40
2018-09-11T17:30:11.774Z,6.87
2018-09-11T17:32:39.186Z,4.90
2018-09-11T17:35:06.296Z,5.17
2018-09-11T17:37:33.436Z,4.87
2018-09-11T17:40:00.981Z,4.40
2018-09-11T17:42:28.056Z,6.53
2018-09-11T17:44:55.133Z,4.83
2018-09-11T17:47:22.648Z,8.03
2018-09-11T17:49:49.752Z,10.23
2018-09-11T17:52:17.042Z,16.80
2018-09-11T17:54:44.528Z,22.50
2018-09-11T17:57:11.621Z,17.30
2018-09-11T17:59:38.640Z,30.60
2018-09-11T18:02:06.214Z,22.53
2018-09-11T18:04:33.386Z,15.13
2018-09-11T18:07:00.537Z,48.97
2018-09-11T18:09:28.179Z,35.60
2018-09-11T18:11:55.292Z,61.77
2018-09-11T18:14:22.360Z,50.53
2018-09-11T18:16:50.006Z,9.03
2018-09-11T18:19:17.213Z,15.20
2018-09-11T18:21:44.374Z,7.87
2018-09-11T18:24:11.820Z,28.60
2018-09-11T18:26:38.878Z,36.43
2018-09-11T18:29:05.953Z,9.77
2018-09-11T18:31:33.341Z,21.03
2018-09-11T18:34:00.401Z,5.40
2018-09-11T18:36:27.482Z,19.53
2018-09-11T18:38:54.840Z,14.03
2018-09-11T18:41:21.851Z,14.27
2018-09-11T18:43:48.906Z,16.37
2018-09-11T18:46:16.269Z,9.80
2018-09-11T18:48:43.288Z,9.37
2018-09-11T18:51:10.392Z,12.03
2018-09-11T18:53:37.733Z,6.10
2018-09-11T18:56:04.821Z,8.17
2018-09-11T18:58:32.029Z,12.87
2018-09-11T19:00:59.628Z,6.67
2018-09-11T19:03:26.760Z,8.57
2018-09-11T19:05:53.775Z,5.77
2018-09-11T19:08:21.152Z,6.70
2018-09-11T19:10:48.254Z,21.70
2018-09-11T19:13:15.417Z,15.07
2018-09-11T19:15:42.760Z,12.50
2018-09-11T19:18:09.796Z,9.40
2018-09-11T19:20:36.948Z,38.60
2018-09-11T19:23:04.347Z,50.43
2018-09-11T19:25:31.441Z,17.10
2018-09-11T19:27:58.646Z,18.10
2018-09-11T19:30:26.109Z,12.53
2018-09-11T19:32:54.149Z,14.47
2018-09-11T19:35:21.596Z,19.87
2018-09-11T19:37:49.414Z,15.50
2018-09-11T19:40:16.987Z,5.70
2018-09-11T19:42:44.729Z,26.27
2018-09-11T19:45:12.814Z,29.30
2018-09-11T19:47:39.988Z,6.20
2018-09-11T19:50:07.333Z,26.97
2018-09-11T19:52:34.960Z,28.10
2018-09-11T19:55:02.426Z,7.70
2018-09-11T19:57:30.083Z,13.63
2018-09-11T19:59:59.074Z,24.70
2018-09-11T20:02:26.786Z,16.37
2018-09-11T20:04:54.043Z,9.40
2018-09-11T20:07:22.007Z,7.10
2018-09-11T20:09:49.116Z,8.37
2018-09-11T20:12:16.254Z,5.13
2018-09-11T20:14:43.689Z,7.67
2018-09-11T20:17:10.883Z,5.60
2018-09-11T20:19:37.970Z,5.90
2018-09-11T20:22:06.824Z,7.20
2018-09-11T20:24:33.893Z,6.13
2018-09-11T20:27:00.978Z,4.70
2018-09-11T20:29:28.408Z,5.67
2018-09-11T20:31:58.829Z,5.23
2018-09-11T20:34:26.272Z,5.67
2018-09-11T20:36:53.636Z,6.37
2018-09-11T20:39:20.610Z,5.20
2018-09-11T20:41:47.702Z,5.97
2018-09-11T20:44:14.710Z,5.57
2018-09-11T20:46:41.702Z,7.43
2018-09-11T20:49:08.758Z,9.57
2018-09-11T20:51:36.051Z,22.90
2018-09-11T20:54:03.090Z,13.37
2018-09-11T20:56:30.339Z,25.37
2018-09-11T20:58:57.631Z,19.40
2018-09-11T21:01:24.652Z,5.17
2018-09-11T21:03:51.688Z,21.03
2018-09-11T21:06:19.034Z,34.87
2018-09-11T21:08:46.040Z,21.57
2018-09-11T21:11:13.021Z,5.50
2018-09-11T21:13:40.335Z,19.87
2018-09-11T21:16:07.394Z,6.57
2018-09-11T21:18:34.487Z,27.27
2018-09-11T21:21:01.772Z,43.90
2018-09-11T21:23:28.806Z,29.63
2018-09-11T21:25:55.772Z,14.53
2018-09-11T21:28:23.042Z,15.30
2018-09-11T21:30:50.029Z,14.90
2018-09-11T21:33:17.095Z,24.87
2018-09-11T21:35:44.442Z,10.07
2018-09-11T21:38:11.391Z,7.87
2018-09-11T21:40:38.341Z,14.67
2018-09-11T21:43:05.632Z,7.00
2018-09-11T21:45:32.609Z,13.80
2018-09-11T21:47:59.547Z,14.20
2018-09-11T21:50:27.117Z,8.93
2018-09-11T21:52:54.122Z,8.07
2018-09-11T21:55:21.053Z,7.10
2018-09-11T21:57:48.413Z,5.60
2018-09-11T22:00:15.449Z,4.73
2018-09-11T22:02:42.501Z,5.60
2018-09-11T22:05:10.271Z,6.33
2018-09-11T22:07:37.308Z,4.37
2018-09-11T22:10:06.015Z,6.67
2018-09-11T22:12:33.232Z,4.67
2018-09-11T22:15:00.228Z,4.60
2018-09-11T22:17:27.285Z,3.90
2018-09-11T22:19:54.709Z,3.87
2018-09-11T22:22:21.705Z,4.10
2018-09-11T22:24:48.813Z,4.40
2018-09-11T22:27:15.774Z,4.03
2018-09-11T22:29:42.762Z,4.00
2018-09-11T22:32:09.825Z,4.00
2018-09-11T22:34:37.090Z,4.10
2018-09-11T22:37:04.122Z,4.10
2018-09-11T22:39:31.053Z,4.43
2018-09-11T22:41:58.343Z,3.47
2018-09-11T22:44:25.360Z,3.67
2018-09-11T22:46:52.370Z,4.70
2018-09-11T22:49:19.651Z,3.40
2018-09-11T22:51:46.612Z,3.90
2018-09-11T22:54:13.611Z,4.20
2018-09-11T22:56:41.041Z,3.90
2018-09-11T22:59:08.003Z,3.63
2018-09-11T23:01:34.937Z,4.03
2018-09-11T23:04:02.186Z,3.73
2018-09-11T23:06:30.173Z,3.30
2018-09-11T23:08:57.123Z,4.40
2018-09-11T23:11:24.592Z,5.37
2018-09-11T23:13:51.721Z,8.57
2018-09-11T23:16:18.697Z,5.40
2018-09-11T23:18:46.014Z,5.10
2018-09-11T23:21:13.013Z,5.27
2018-09-11T23:23:39.948Z,5.17
2018-09-11T23:26:07.252Z,3.87
2018-09-11T23:28:34.264Z,6.70
2018-09-11T23:31:01.256Z,5.50
2018-09-11T23:33:28.605Z,4.07
2018-09-11T23:35:55.575Z,4.63
2018-09-11T23:38:22.609Z,4.77
2018-09-11T23:40:49.947Z,3.70
2018-09-11T23:43:16.925Z,4.20
2018-09-11T23:45:43.909Z,3.60
2018-09-11T23:48:11.218Z,3.70
2018-09-11T23:50:38.204Z,3.60
2018-09-11T23:53:05.339Z,3.40
2018-09-11T23:55:32.646Z,3.10
2018-09-11T23:57:59.690Z,3.53
